Airport View

Enter ICAO identifier to see the current METAR for that AWOS.

KFNL for example

KPIT 011751Z 02004KT 8SM OVC012 16/13 A3004

1 Oct 2014 18:15

Phone: 412-472-0145

Other Area AWOS: KAGC - KBVI - KBTP - KAFJ

TAF KPIT 011720Z 0118/0224 36003KT P6SM BKN011 BKN025 FM012000 14005KT P6SM SCT025 FM020800 00000KT 3SM BR SCT001 FM021000 00000KT 1/2SM FG OVC001 FM021400 VRB03KT P6SM SCT025